Terminal Aerodrome Forecast
Issued by NWS Jackson, MS

Home | Current Version | Previous Version | Text Only | Print | Product List | Glossary On
Versions: 1 2 3 4 5 6 7 8 9 10 11 12 13 14 15 16 17 18 19 20 21 22 23 24 25 26 27 28 29 30
000
FTUS44 KJAN 270500
TAFGLH
TAF
KGLH 270520Z 2706/2806 01012KT P6SM BKN029
     FM271500 03010G15KT P6SM BKN025=

USA.gov is the U.S. government's official web portal to all federal, state and local government web resources and services.